createdAt,value
2018-07-20T00:01:12.457Z,97791.00
2018-07-20T00:03:44.312Z,97782.00
2018-07-20T00:06:15.933Z,97786.00
2018-07-20T00:08:47.656Z,97786.00
2018-07-20T00:11:19.535Z,97783.00
2018-07-20T00:13:51.386Z,97782.00
2018-07-20T00:16:23.093Z,97784.00
2018-07-20T00:18:54.861Z,97780.00
2018-07-20T00:21:26.585Z,97786.00
2018-07-20T00:23:58.212Z,97784.00
2018-07-20T00:26:29.900Z,97779.00
2018-07-20T00:29:01.618Z,97780.00
2018-07-20T00:31:33.437Z,97778.00
2018-07-20T00:34:05.132Z,97778.00
2018-07-20T00:36:36.932Z,97774.00
2018-07-20T00:39:11.277Z,97774.00
2018-07-20T00:41:42.997Z,97772.00
2018-07-20T00:44:14.717Z,97769.00
2018-07-20T00:46:46.665Z,97771.00
2018-07-20T00:49:18.456Z,97765.00
2018-07-20T00:51:50.233Z,97770.00
2018-07-20T00:54:21.864Z,97768.00
2018-07-20T00:56:53.572Z,97764.00
2018-07-20T00:59:25.422Z,97767.00
2018-07-20T01:01:57.219Z,97766.00
2018-07-20T01:04:29.053Z,97761.00
2018-07-20T01:07:00.787Z,97758.00
2018-07-20T01:09:32.461Z,97753.00
2018-07-20T01:12:04.316Z,97754.00
2018-07-20T01:14:36.181Z,97753.00
2018-07-20T01:17:07.845Z,97752.00
2018-07-20T01:19:39.511Z,97749.00
2018-07-20T01:22:11.442Z,97745.00
2018-07-20T01:24:43.300Z,97745.00
2018-07-20T01:27:14.969Z,97738.00
2018-07-20T01:29:46.725Z,97737.00
2018-07-20T01:32:18.510Z,97740.00
2018-07-20T01:34:50.155Z,97732.00
2018-07-20T01:37:22.001Z,97736.00
2018-07-20T01:39:53.856Z,97732.00
2018-07-20T01:42:25.534Z,97731.00
2018-07-20T01:44:57.273Z,97732.00
2018-07-20T01:47:28.945Z,97732.00
2018-07-20T01:50:00.608Z,97728.00
2018-07-20T01:52:32.346Z,97730.00
2018-07-20T01:55:04.207Z,97729.00
2018-07-20T01:57:36.016Z,97727.00
2018-07-20T02:00:07.755Z,97723.00
2018-07-20T02:02:39.686Z,97727.00
2018-07-20T02:05:11.480Z,97729.00
2018-07-20T02:07:43.189Z,97733.00
2018-07-20T02:10:15.068Z,97729.00
2018-07-20T02:12:46.929Z,97734.00
2018-07-20T02:15:18.597Z,97727.00
2018-07-20T02:17:50.349Z,97730.00
2018-07-20T02:20:22.147Z,97723.00
2018-07-20T02:22:53.782Z,97724.00
2018-07-20T02:25:25.513Z,97725.00
2018-07-20T02:27:57.287Z,97728.00
2018-07-20T02:30:29.071Z,97724.00
2018-07-20T02:33:00.793Z,97728.00
2018-07-20T02:35:32.466Z,97721.00
2018-07-20T02:38:04.137Z,97724.00
2018-07-20T02:40:36.125Z,97724.00
2018-07-20T02:43:07.776Z,97728.00
2018-07-20T02:45:39.408Z,97735.00
2018-07-20T02:48:11.246Z,97728.00
2018-07-20T02:50:43.044Z,97734.00
2018-07-20T02:53:14.673Z,97732.00
2018-07-20T02:55:46.418Z,97732.00
2018-07-20T02:58:18.313Z,97736.00
2018-07-20T03:00:49.950Z,97740.00
2018-07-20T03:03:21.821Z,97736.00
2018-07-20T03:05:53.577Z,97733.00
2018-07-20T03:08:25.470Z,97738.00
2018-07-20T03:10:57.108Z,97739.00
2018-07-20T03:13:28.921Z,97740.00
2018-07-20T03:16:00.613Z,97744.00
2018-07-20T03:18:32.492Z,97743.00
2018-07-20T03:21:04.278Z,97740.00
2018-07-20T03:23:36.011Z,97741.00
2018-07-20T03:26:08.440Z,97744.00
2018-07-20T03:28:40.360Z,97743.00
2018-07-20T03:31:12.164Z,97739.00
2018-07-20T03:33:43.841Z,97736.00
2018-07-20T03:36:15.573Z,97740.00
2018-07-20T03:38:47.497Z,97743.00
2018-07-20T03:41:19.258Z,97736.00
2018-07-20T03:43:50.967Z,97739.00
2018-07-20T03:46:22.830Z,97734.00
2018-07-20T03:48:54.734Z,97732.00
2018-07-20T03:51:26.481Z,97737.00
2018-07-20T03:53:58.307Z,97736.00
2018-07-20T03:56:30.112Z,97738.00
2018-07-20T03:59:01.855Z,97734.00
2018-07-20T04:01:33.711Z,97730.00
2018-07-20T04:04:05.598Z,97725.00
2018-07-20T04:06:37.445Z,97725.00
2018-07-20T04:09:10.441Z,97729.00
2018-07-20T04:11:42.473Z,97731.00
2018-07-20T04:14:14.322Z,97723.00
2018-07-20T04:16:46.134Z,97729.00
2018-07-20T04:19:17.770Z,97726.00
2018-07-20T04:21:49.652Z,97728.00
2018-07-20T04:24:21.308Z,97722.00
2018-07-20T04:26:52.937Z,97721.00
2018-07-20T04:29:24.876Z,97722.00
2018-07-20T04:31:56.545Z,97714.00
2018-07-20T04:34:28.213Z,97714.00
2018-07-20T04:36:59.946Z,97716.00
2018-07-20T04:39:31.529Z,97714.00
2018-07-20T04:42:03.187Z,97716.00
2018-07-20T04:44:34.914Z,97715.00
2018-07-20T04:47:06.717Z,97717.00
2018-07-20T04:49:38.465Z,97720.00
2018-07-20T04:52:10.347Z,97716.00
2018-07-20T04:54:42.078Z,97717.00
2018-07-20T04:57:13.837Z,97720.00
2018-07-20T04:59:45.577Z,97720.00
2018-07-20T05:02:17.443Z,97723.00
2018-07-20T05:04:49.247Z,97721.00
2018-07-20T05:07:21.158Z,97724.00
2018-07-20T05:09:53.050Z,97717.00
2018-07-20T05:12:24.880Z,97712.00
2018-07-20T05:14:56.728Z,97714.00
2018-07-20T05:17:28.421Z,97713.00
2018-07-20T05:20:00.157Z,97708.00
2018-07-20T05:22:31.939Z,97710.00
2018-07-20T05:25:03.804Z,97713.00
2018-07-20T05:27:35.655Z,97705.00
2018-07-20T05:30:07.748Z,97707.00
2018-07-20T05:32:39.506Z,97708.00
2018-07-20T05:35:11.354Z,97707.00
2018-07-20T05:37:43.313Z,97708.00
2018-07-20T05:40:15.359Z,97710.00
2018-07-20T05:42:47.022Z,97710.00
2018-07-20T05:45:18.689Z,97711.00
2018-07-20T05:47:50.533Z,97707.00
2018-07-20T05:50:22.389Z,97709.00
2018-07-20T05:52:54.198Z,97708.00
2018-07-20T05:55:25.836Z,97709.00
2018-07-20T05:57:57.793Z,97713.00
2018-07-20T06:00:29.444Z,97716.00
2018-07-20T06:03:01.325Z,97714.00
2018-07-20T06:05:33.157Z,97711.00
2018-07-20T06:08:05.008Z,97715.00
2018-07-20T06:10:36.668Z,97718.00
2018-07-20T06:13:08.449Z,97716.00
2018-07-20T06:15:40.234Z,97718.00
2018-07-20T06:18:11.848Z,97718.00
2018-07-20T06:20:43.521Z,97719.00
2018-07-20T06:23:15.408Z,97719.00
2018-07-20T06:25:47.269Z,97713.00
2018-07-20T06:28:18.895Z,97712.00
2018-07-20T06:30:50.832Z,97708.00
2018-07-20T06:33:22.702Z,97710.00
2018-07-20T06:35:54.473Z,97710.00
2018-07-20T06:38:26.250Z,97705.00
2018-07-20T06:40:58.076Z,97704.00
2018-07-20T06:43:29.853Z,97705.00
2018-07-20T06:46:01.514Z,97707.00
2018-07-20T06:48:33.255Z,97702.00
2018-07-20T06:51:05.046Z,97705.00
2018-07-20T06:53:36.689Z,97704.00
2018-07-20T06:56:08.580Z,97702.00
2018-07-20T06:58:40.338Z,97704.00
2018-07-20T07:01:12.093Z,97704.00
2018-07-20T07:03:43.856Z,97706.00
2018-07-20T07:06:15.616Z,97706.00
2018-07-20T07:08:47.352Z,97707.00
2018-07-20T07:11:19.424Z,97708.00
2018-07-20T07:13:51.496Z,97703.00
2018-07-20T07:16:23.520Z,97703.00
2018-07-20T07:18:55.185Z,97698.00
2018-07-20T07:21:26.964Z,97700.00
2018-07-20T07:23:58.693Z,97708.00
2018-07-20T07:26:30.692Z,97705.00
2018-07-20T07:29:02.351Z,97706.00
2018-07-20T07:31:34.277Z,97704.00
2018-07-20T07:34:06.353Z,97693.00
2018-07-20T07:36:38.138Z,97695.00
2018-07-20T07:39:12.513Z,97694.00
2018-07-20T07:41:44.385Z,97693.00
2018-07-20T07:44:16.305Z,97696.00
2018-07-20T07:46:48.033Z,97691.00
2018-07-20T07:49:19.790Z,97693.00
2018-07-20T07:51:51.633Z,97697.00
2018-07-20T07:54:23.438Z,97690.00
2018-07-20T07:56:55.174Z,97685.00
2018-07-20T07:59:26.897Z,97687.00
2018-07-20T08:01:59.709Z,97681.00
2018-07-20T08:04:31.481Z,97675.00
2018-07-20T08:07:03.311Z,97674.00
2018-07-20T08:09:35.155Z,97680.00
2018-07-20T08:12:06.962Z,97674.00
2018-07-20T08:14:38.687Z,97672.00
2018-07-20T08:17:10.581Z,97671.00
2018-07-20T08:19:42.447Z,97666.00
2018-07-20T08:22:14.189Z,97665.00
2018-07-20T08:24:45.978Z,97662.00
2018-07-20T08:27:17.840Z,97665.00
2018-07-20T08:29:49.567Z,97662.00
2018-07-20T08:32:21.500Z,97661.00
2018-07-20T08:34:53.306Z,97660.00
2018-07-20T08:37:25.153Z,97659.00
2018-07-20T08:39:56.918Z,97658.00
2018-07-20T08:42:28.644Z,97657.00
2018-07-20T08:45:00.278Z,97654.00
2018-07-20T08:47:32.086Z,97651.00
2018-07-20T08:50:03.875Z,97655.00
2018-07-20T08:52:35.195Z,97648.00
2018-07-20T08:55:06.893Z,97650.00
2018-07-20T08:57:38.605Z,97644.00
2018-07-20T09:00:10.554Z,97645.00
2018-07-20T09:02:42.238Z,97641.00
2018-07-20T09:05:13.989Z,97635.00
2018-07-20T09:07:45.827Z,97636.00
2018-07-20T09:10:17.592Z,97634.00
2018-07-20T09:12:49.258Z,97630.00
2018-07-20T09:15:21.014Z,97630.00
2018-07-20T09:17:52.762Z,97630.00
2018-07-20T09:20:24.577Z,97634.00
2018-07-20T09:22:56.520Z,97631.00
2018-07-20T09:25:28.473Z,97636.00
2018-07-20T09:28:00.363Z,97632.00
2018-07-20T09:30:32.223Z,97637.00
2018-07-20T09:33:03.858Z,97636.00
2018-07-20T09:35:35.637Z,97638.00
2018-07-20T09:38:07.497Z,97634.00
2018-07-20T09:40:39.389Z,97633.00
2018-07-20T09:43:11.175Z,97631.00
2018-07-20T09:45:42.861Z,97632.00
2018-07-20T09:48:14.728Z,97630.00
2018-07-20T09:50:46.562Z,97628.00
2018-07-20T09:53:18.525Z,97625.00
2018-07-20T09:55:50.201Z,97627.00
2018-07-20T09:58:21.964Z,97622.00
2018-07-20T10:00:53.913Z,97625.00
2018-07-20T10:03:25.798Z,97623.00
2018-07-20T10:05:57.580Z,97614.00
2018-07-20T10:08:29.336Z,97613.00
2018-07-20T10:11:01.078Z,97617.00
2018-07-20T10:13:32.838Z,97612.00
2018-07-20T10:16:04.659Z,97604.00
2018-07-20T10:18:36.561Z,97602.00
2018-07-20T10:21:08.182Z,97602.00
2018-07-20T10:23:39.926Z,97597.00
2018-07-20T10:26:11.630Z,97601.00
2018-07-20T10:28:43.443Z,97602.00
2018-07-20T10:31:15.342Z,97597.00
2018-07-20T10:33:47.203Z,97595.00
2018-07-20T10:36:19.066Z,97593.00
2018-07-20T10:38:51.043Z,97586.00
2018-07-20T10:41:22.800Z,97580.00
2018-07-20T10:43:54.609Z,97577.00
2018-07-20T10:46:26.411Z,97579.00
2018-07-20T10:48:58.046Z,97576.00
2018-07-20T10:51:29.892Z,97574.00
2018-07-20T10:54:01.650Z,97569.00
2018-07-20T10:56:33.445Z,97562.00
2018-07-20T10:59:05.298Z,97561.00
2018-07-20T11:01:37.154Z,97561.00
2018-07-20T11:04:09.042Z,97559.00
2018-07-20T11:06:40.560Z,97553.00
2018-07-20T11:09:12.302Z,97548.00
2018-07-20T11:11:43.974Z,97547.00
2018-07-20T11:14:15.625Z,97539.00
2018-07-20T11:16:47.408Z,97538.00
2018-07-20T11:19:19.136Z,97527.00
2018-07-20T11:21:50.945Z,97529.00
2018-07-20T11:24:22.677Z,97527.00
2018-07-20T11:26:54.718Z,97529.00
2018-07-20T11:29:26.692Z,97525.00
2018-07-20T11:31:58.474Z,97523.00
2018-07-20T11:34:30.341Z,97517.00
2018-07-20T11:37:02.274Z,97516.00
2018-07-20T11:39:34.022Z,97514.00
2018-07-20T11:42:05.721Z,97502.00
2018-07-20T11:44:37.508Z,97496.00
2018-07-20T11:47:09.213Z,97494.00
2018-07-20T11:49:40.977Z,97494.00
2018-07-20T11:52:12.925Z,97491.00
2018-07-20T11:54:44.680Z,97486.00
2018-07-20T11:57:16.590Z,97481.00
2018-07-20T11:59:48.379Z,97479.00
2018-07-20T12:02:20.211Z,97474.00
2018-07-20T12:04:51.865Z,97474.00
2018-07-20T12:07:23.568Z,97469.00
2018-07-20T12:09:55.246Z,97471.00
2018-07-20T12:12:27.019Z,97469.00
2018-07-20T12:14:58.784Z,97465.00
2018-07-20T12:17:30.425Z,97465.00
2018-07-20T12:20:02.084Z,97456.00
2018-07-20T12:22:33.825Z,97457.00
2018-07-20T12:25:05.625Z,97456.00
2018-07-20T12:27:37.272Z,97457.00
2018-07-20T12:30:09.197Z,97458.00
2018-07-20T12:32:40.865Z,97454.00
2018-07-20T12:35:12.542Z,97454.00
2018-07-20T12:37:44.378Z,97458.00
2018-07-20T12:40:16.145Z,97454.00
2018-07-20T12:42:47.921Z,97458.00
2018-07-20T12:45:19.750Z,97453.00
2018-07-20T12:47:51.510Z,97448.00
2018-07-20T12:50:23.229Z,97452.00
2018-07-20T12:52:55.061Z,97444.00
2018-07-20T12:55:26.839Z,97442.00
2018-07-20T12:57:58.522Z,97441.00
2018-07-20T13:00:30.332Z,97434.00
2018-07-20T13:03:02.169Z,97431.00
2018-07-20T13:05:33.838Z,97438.00
2018-07-20T13:08:05.507Z,97435.00
2018-07-20T13:10:37.392Z,97437.00
2018-07-20T13:13:09.254Z,97430.00
2018-07-20T13:15:40.984Z,97424.00
2018-07-20T13:18:12.910Z,97431.00
2018-07-20T13:20:44.607Z,97429.00
2018-07-20T13:23:16.364Z,97426.00
2018-07-20T13:25:48.204Z,97425.00
2018-07-20T13:28:20.115Z,97427.00
2018-07-20T13:30:51.307Z,97422.00
2018-07-20T13:33:23.071Z,97412.00
2018-07-20T13:35:54.936Z,97410.00
2018-07-20T13:38:26.770Z,97407.00
2018-07-20T13:40:58.659Z,97401.00
2018-07-20T13:43:30.467Z,97408.00
2018-07-20T13:46:02.189Z,97400.00
2018-07-20T13:48:33.931Z,97396.00
2018-07-20T13:51:05.892Z,97393.00
2018-07-20T13:53:37.660Z,97390.00
2018-07-20T13:56:09.538Z,97384.00
2018-07-20T13:58:41.275Z,97377.00
2018-07-20T14:01:13.058Z,97366.00
2018-07-20T14:03:44.749Z,97365.00
2018-07-20T14:06:15.886Z,97371.00
2018-07-20T14:08:47.518Z,97364.00
2018-07-20T14:11:19.410Z,97355.00
2018-07-20T14:13:51.159Z,97352.00
2018-07-20T14:16:22.889Z,97353.00
2018-07-20T14:18:54.754Z,97351.00
2018-07-20T14:21:26.589Z,97349.00
2018-07-20T14:23:58.353Z,97349.00
2018-07-20T14:26:30.127Z,97351.00
2018-07-20T14:29:01.870Z,97346.00
2018-07-20T14:31:33.711Z,97344.00
2018-07-20T14:34:05.615Z,97339.00
2018-07-20T14:36:37.557Z,97345.00
2018-07-20T14:39:13.517Z,97344.00
2018-07-20T14:41:45.194Z,97344.00
2018-07-20T14:44:17.063Z,97345.00
2018-07-20T14:46:48.701Z,97339.00
2018-07-20T14:49:20.361Z,97338.00
2018-07-20T14:51:52.153Z,97337.00
2018-07-20T14:54:23.767Z,97335.00
2018-07-20T14:56:55.801Z,97339.00
2018-07-20T14:59:27.613Z,97339.00
2018-07-20T15:01:59.545Z,97334.00
2018-07-20T15:04:31.210Z,97331.00
2018-07-20T15:07:02.885Z,97335.00
2018-07-20T15:09:34.617Z,97330.00
2018-07-20T15:12:06.412Z,97329.00
2018-07-20T15:14:38.188Z,97327.00
2018-07-20T15:17:09.812Z,97321.00
2018-07-20T15:19:41.585Z,97311.00
2018-07-20T15:22:13.218Z,97311.00
2018-07-20T15:24:44.887Z,97312.00
2018-07-20T15:27:16.829Z,97305.00
2018-07-20T15:29:48.491Z,97303.00
2018-07-20T15:32:20.272Z,97300.00
2018-07-20T15:34:52.101Z,97300.00
2018-07-20T15:37:24.016Z,97298.00
2018-07-20T15:39:55.854Z,97299.00
2018-07-20T15:42:27.615Z,97293.00
2018-07-20T15:44:59.441Z,97290.00
2018-07-20T15:47:31.199Z,97287.00
2018-07-20T15:50:02.891Z,97286.00
2018-07-20T15:53:42.094Z,97279.00
2018-07-20T15:55:06.791Z,97277.00
2018-07-20T15:57:38.614Z,97275.00
2018-07-20T16:00:10.561Z,97273.00
2018-07-20T16:02:42.286Z,97267.00
2018-07-20T16:05:14.234Z,97269.00
2018-07-20T16:07:45.929Z,97265.00
2018-07-20T16:10:17.682Z,97264.00
2018-07-20T16:12:49.571Z,97260.00
2018-07-20T16:15:21.307Z,97258.00
2018-07-20T16:17:53.171Z,97254.00
2018-07-20T16:20:24.914Z,97251.00
2018-07-20T16:22:56.757Z,97248.00
2018-07-20T16:25:28.542Z,97256.00
2018-07-20T16:28:00.411Z,97253.00
2018-07-20T16:30:32.232Z,97248.00
2018-07-20T16:33:03.990Z,97244.00
2018-07-20T16:35:35.767Z,97243.00
2018-07-20T16:38:07.531Z,97241.00
2018-07-20T16:40:39.568Z,97237.00
2018-07-20T16:43:11.432Z,97236.00
2018-07-20T16:45:43.111Z,97230.00
2018-07-20T16:48:14.878Z,97231.00
2018-07-20T16:50:46.764Z,97236.00
2018-07-20T16:53:18.381Z,97232.00
2018-07-20T16:55:50.055Z,97229.00
2018-07-20T16:58:21.797Z,97234.00
2018-07-20T17:00:53.569Z,97228.00
2018-07-20T17:03:25.300Z,97233.00
2018-07-20T17:05:57.337Z,97237.00
2018-07-20T17:08:29.059Z,97239.00
2018-07-20T17:11:00.705Z,97235.00
2018-07-20T17:13:32.444Z,97240.00
2018-07-20T17:16:04.150Z,97245.00
2018-07-20T17:18:35.962Z,97244.00
2018-07-20T17:21:07.684Z,97245.00
2018-07-20T17:23:39.399Z,97245.00
2018-07-20T17:26:11.261Z,97248.00
2018-07-20T17:28:42.997Z,97252.00
2018-07-20T17:31:14.686Z,97254.00
2018-07-20T17:33:46.523Z,97258.00
2018-07-20T17:36:18.329Z,97254.00
2018-07-20T17:38:50.082Z,97256.00
2018-07-20T17:41:21.876Z,97253.00
2018-07-20T17:43:53.906Z,97256.00
2018-07-20T17:46:25.746Z,97255.00
2018-07-20T17:48:57.410Z,97246.00
2018-07-20T17:51:29.145Z,97245.00
2018-07-20T17:54:00.925Z,97248.00
2018-07-20T17:56:32.657Z,97246.00
2018-07-20T17:59:04.517Z,97251.00
2018-07-20T18:01:36.422Z,97242.00
2018-07-20T18:04:08.153Z,97248.00
2018-07-20T18:06:39.823Z,97248.00
2018-07-20T18:09:12.113Z,97246.00
2018-07-20T18:11:43.855Z,97248.00
2018-07-20T18:14:15.627Z,97249.00
2018-07-20T18:16:47.335Z,97250.00
2018-07-20T18:19:19.124Z,97253.00
2018-07-20T18:21:50.892Z,97250.00
2018-07-20T18:24:22.769Z,97250.00
2018-07-20T18:26:54.573Z,97253.00
2018-07-20T18:29:26.243Z,97254.00
2018-07-20T18:31:58.125Z,97254.00
2018-07-20T18:34:29.901Z,97257.00
2018-07-20T18:37:01.663Z,97256.00
2018-07-20T18:39:32.778Z,97255.00
2018-07-20T18:42:04.468Z,97255.00
2018-07-20T18:44:36.175Z,97253.00
2018-07-20T18:47:07.838Z,97253.00
2018-07-20T18:49:39.510Z,97252.00
2018-07-20T18:52:11.242Z,97251.00
2018-07-20T18:54:43.130Z,97251.00
2018-07-20T18:57:14.913Z,97245.00
2018-07-20T18:59:46.739Z,97254.00
2018-07-20T19:02:18.534Z,97251.00
2018-07-20T19:04:50.278Z,97246.00
2018-07-20T19:07:21.926Z,97251.00
2018-07-20T19:09:53.766Z,97246.00
2018-07-20T19:12:25.537Z,97250.00
2018-07-20T19:14:57.368Z,97252.00
2018-07-20T19:17:29.140Z,97260.00
2018-07-20T19:20:00.811Z,97264.00
2018-07-20T19:22:32.581Z,97262.00
2018-07-20T19:25:04.416Z,97269.00
2018-07-20T19:27:36.279Z,97264.00
2018-07-20T19:30:07.972Z,97268.00
2018-07-20T19:32:39.729Z,97269.00
2018-07-20T19:35:11.373Z,97273.00
2018-07-20T19:37:43.134Z,97277.00
2018-07-20T19:40:14.962Z,97277.00
2018-07-20T19:42:46.640Z,97265.00
2018-07-20T19:45:18.416Z,97263.00
2018-07-20T19:47:50.246Z,97259.00
2018-07-20T19:50:22.109Z,97263.00
2018-07-20T19:52:53.836Z,97266.00
2018-07-20T19:55:46.929Z,97269.00
2018-07-20T19:58:33.022Z,97266.00
2018-07-20T20:01:18.276Z,97261.00
2018-07-20T20:04:02.911Z,97257.00
2018-07-20T20:06:50.721Z,97258.00
2018-07-20T20:09:36.322Z,97251.00
2018-07-20T20:12:17.317Z,97245.00
2018-07-20T20:14:55.715Z,97245.00
2018-07-20T20:17:33.555Z,97247.00
2018-07-20T20:20:08.140Z,97248.00
2018-07-20T20:22:40.000Z,97249.00
2018-07-20T20:25:11.685Z,97254.00
2018-07-20T20:27:43.504Z,97258.00
2018-07-20T20:30:15.109Z,97258.00
2018-07-20T20:32:46.917Z,97255.00
2018-07-20T20:35:18.609Z,97254.00
2018-07-20T20:37:50.499Z,97262.00
2018-07-20T20:40:22.415Z,97275.00
2018-07-20T20:42:54.276Z,97275.00
2018-07-20T20:45:26.112Z,97290.00
2018-07-20T20:47:57.946Z,97289.00
2018-07-20T20:50:29.697Z,97289.00
2018-07-20T20:53:01.327Z,97292.00
2018-07-20T20:55:33.185Z,97297.00
2018-07-20T20:58:04.917Z,97294.00
2018-07-20T21:00:36.583Z,97298.00
2018-07-20T21:03:08.292Z,97303.00
2018-07-20T21:05:39.924Z,97299.00
2018-07-20T21:08:11.706Z,97298.00
2018-07-20T21:10:43.520Z,97304.00
2018-07-20T21:13:15.156Z,97299.00
2018-07-20T21:15:46.962Z,97299.00
2018-07-20T21:18:18.664Z,97299.00
2018-07-20T21:20:50.378Z,97300.00
2018-07-20T21:23:22.269Z,97291.00
2018-07-20T21:25:54.092Z,97289.00
2018-07-20T21:28:25.901Z,97288.00
2018-07-20T21:30:57.799Z,97286.00
2018-07-20T21:33:29.420Z,97279.00
2018-07-20T21:36:01.041Z,97279.00
2018-07-20T21:38:32.971Z,97283.00
2018-07-20T21:41:04.610Z,97282.00
2018-07-20T21:43:36.262Z,97284.00
2018-07-20T21:46:08.303Z,97287.00
2018-07-20T21:48:40.314Z,97281.00
2018-07-20T21:51:12.223Z,97284.00
2018-07-20T21:53:43.902Z,97289.00
2018-07-20T21:56:15.740Z,97290.00
2018-07-20T21:58:47.617Z,97290.00
2018-07-20T22:01:19.409Z,97291.00
2018-07-20T22:03:51.192Z,97286.00
2018-07-20T22:06:22.997Z,97285.00
2018-07-20T22:08:54.656Z,97281.00
2018-07-20T22:11:26.334Z,97279.00
2018-07-20T22:13:58.153Z,97282.00
2018-07-20T22:16:29.942Z,97289.00
2018-07-20T22:19:01.586Z,97280.00
2018-07-20T22:21:33.344Z,97275.00
2018-07-20T22:24:05.244Z,97271.00
2018-07-20T22:26:37.004Z,97275.00
2018-07-20T22:29:08.253Z,97272.00
2018-07-20T22:31:40.022Z,97260.00
2018-07-20T22:34:11.729Z,97262.00
2018-07-20T22:36:43.593Z,97261.00
2018-07-20T22:39:15.258Z,97260.00
2018-07-20T22:41:47.100Z,97252.00
2018-07-20T22:44:18.854Z,97249.00
2018-07-20T22:46:50.674Z,97249.00
2018-07-20T22:49:22.452Z,97252.00
2018-07-20T22:51:54.269Z,97258.00
2018-07-20T22:54:25.928Z,97255.00
2018-07-20T22:56:57.572Z,97250.00
2018-07-20T22:59:29.311Z,97247.00
2018-07-20T23:02:01.219Z,97256.00
2018-07-20T23:04:32.854Z,97259.00
2018-07-20T23:07:04.725Z,97247.00
2018-07-20T23:09:36.353Z,97244.00
2018-07-20T23:12:08.131Z,97241.00
2018-07-20T23:14:39.861Z,97238.00
2018-07-20T23:17:12.152Z,97230.00
2018-07-20T23:19:43.797Z,97237.00
2018-07-20T23:22:15.573Z,97234.00
2018-07-20T23:24:47.309Z,97233.00
2018-07-20T23:27:18.982Z,97240.00
2018-07-20T23:29:50.646Z,97242.00
2018-07-20T23:32:22.378Z,97240.00
2018-07-20T23:34:54.182Z,97243.00
2018-07-20T23:37:25.988Z,97240.00
2018-07-20T23:39:57.660Z,97245.00
2018-07-20T23:42:29.396Z,97244.00
2018-07-20T23:45:01.327Z,97240.00
2018-07-20T23:47:33.045Z,97243.00
2018-07-20T23:50:04.832Z,97243.00
2018-07-20T23:52:36.497Z,97241.00
2018-07-20T23:55:09.009Z,97241.00
2018-07-20T23:57:40.697Z,97237.00
